createdAt,value
2022-12-06T00:02:49.853Z,90.03
2022-12-06T00:07:51.333Z,90.18
2022-12-06T00:12:53.006Z,90.40
2022-12-06T00:17:54.414Z,89.86
2022-12-06T00:22:55.850Z,90.42
2022-12-06T00:27:57.215Z,89.99
2022-12-06T00:32:58.592Z,90.19
2022-12-06T00:37:59.954Z,89.78
2022-12-06T00:43:01.374Z,89.88
2022-12-06T00:48:02.795Z,90.09
2022-12-06T00:53:04.178Z,89.78
2022-12-06T00:58:05.687Z,90.09
2022-12-06T01:03:08.053Z,90.31
2022-12-06T01:08:10.191Z,90.01
2022-12-06T01:13:11.655Z,89.99
2022-12-06T01:18:13.336Z,90.17
2022-12-06T01:23:15.838Z,89.99
2022-12-06T01:28:17.809Z,89.47
2022-12-06T01:33:19.282Z,89.78
2022-12-06T01:38:20.723Z,89.92
2022-12-06T01:43:39.144Z,89.93
2022-12-06T01:48:40.924Z,90.22
2022-12-06T01:53:44.040Z,90.03
2022-12-06T01:58:46.868Z,90.63
2022-12-06T02:03:48.833Z,90.05
2022-12-06T02:08:53.228Z,89.78
2022-12-06T02:13:55.509Z,89.84
2022-12-06T02:19:11.110Z,90.04
2022-12-06T02:24:50.665Z,89.98
2022-12-06T02:30:18.774Z,90.05
2022-12-06T02:35:45.304Z,90.16
2022-12-06T02:40:57.481Z,89.79
2022-12-06T02:46:02.860Z,89.97
2022-12-06T02:51:14.167Z,90.02
2022-12-06T02:56:17.125Z,90.10
2022-12-06T03:01:23.727Z,89.78
2022-12-06T03:06:37.391Z,89.45
2022-12-06T03:11:38.759Z,89.74
2022-12-06T03:17:08.390Z,89.55
2022-12-06T03:22:20.728Z,89.67
2022-12-06T03:27:23.318Z,89.70
2022-12-06T03:32:29.391Z,89.80
2022-12-06T03:37:33.853Z,89.69
2022-12-06T03:42:36.204Z,89.68
2022-12-06T03:47:48.896Z,89.51
2022-12-06T03:52:52.483Z,89.70
2022-12-06T03:57:53.939Z,89.09
2022-12-06T04:02:55.401Z,89.61
2022-12-06T04:07:56.989Z,88.93
2022-12-06T04:13:01.385Z,89.15
2022-12-06T04:18:11.443Z,89.07
2022-12-06T04:23:12.889Z,89.21
2022-12-06T04:28:32.910Z,88.27
2022-12-06T04:33:52.962Z,88.91
2022-12-06T04:38:54.444Z,88.98
2022-12-06T04:43:55.816Z,88.81
2022-12-06T04:48:57.568Z,88.94
2022-12-06T04:53:59.493Z,88.96
2022-12-06T04:59:01.201Z,89.12
2022-12-06T05:04:02.745Z,88.91
2022-12-06T05:09:04.858Z,89.05
2022-12-06T05:14:06.464Z,88.71
2022-12-06T05:19:08.087Z,88.86
2022-12-06T05:24:09.733Z,89.42
2022-12-06T05:29:11.159Z,89.98
2022-12-06T05:34:12.564Z,89.92
2022-12-06T05:39:14.065Z,90.25
2022-12-06T05:44:15.460Z,90.56
2022-12-06T05:49:16.866Z,89.93
2022-12-06T05:54:18.736Z,90.28
2022-12-06T05:59:20.197Z,90.10
2022-12-06T06:04:21.603Z,90.22
2022-12-06T06:09:26.521Z,90.56
2022-12-06T06:14:28.133Z,90.67
2022-12-06T06:19:30.024Z,90.38
2022-12-06T06:24:39.830Z,89.86
2022-12-06T06:29:45.277Z,90.01
2022-12-06T06:34:47.172Z,89.85
2022-12-06T06:39:48.716Z,89.64
2022-12-06T06:44:50.426Z,90.23
2022-12-06T06:49:51.862Z,91.08
2022-12-06T06:54:53.285Z,89.61
2022-12-06T06:59:56.238Z,89.92
2022-12-06T07:04:57.985Z,89.44
2022-12-06T07:09:59.555Z,90.11
2022-12-06T07:15:01.182Z,90.24
2022-12-06T07:20:03.374Z,90.39
2022-12-06T07:25:05.800Z,91.31
2022-12-06T07:30:07.797Z,91.33
2022-12-06T07:35:09.575Z,91.48
2022-12-06T07:40:13.470Z,92.35
2022-12-06T07:45:15.624Z,92.08
2022-12-06T07:50:20.235Z,92.68
2022-12-06T07:55:21.750Z,92.50
2022-12-06T08:00:23.290Z,91.74
2022-12-06T08:05:24.986Z,92.44
2022-12-06T08:10:26.529Z,92.13
2022-12-06T08:15:28.065Z,91.94
2022-12-06T08:20:29.563Z,92.59
2022-12-06T08:25:31.017Z,92.30
2022-12-06T08:30:32.541Z,91.52
2022-12-06T08:35:37.609Z,91.63
2022-12-06T08:40:39.149Z,91.71
2022-12-06T08:45:40.649Z,91.65
2022-12-06T08:50:42.269Z,91.67
2022-12-06T08:55:58.689Z,91.70
2022-12-06T09:01:10.292Z,91.89
2022-12-06T09:06:12.352Z,91.99
2022-12-06T09:11:15.334Z,92.04
2022-12-06T09:16:19.272Z,91.75
2022-12-06T09:21:23.296Z,92.45
2022-12-06T09:26:25.414Z,92.21
2022-12-06T09:31:27.031Z,91.55
2022-12-06T09:36:30.516Z,91.63
2022-12-06T09:41:39.497Z,91.64
2022-12-06T09:47:14.650Z,91.91
2022-12-06T09:52:38.274Z,91.67
2022-12-06T09:58:11.145Z,91.27
2022-12-06T10:03:23.630Z,91.58
2022-12-06T10:08:51.424Z,90.83
2022-12-06T10:13:56.015Z,90.48
2022-12-06T10:19:32.942Z,90.96
2022-12-06T10:24:55.869Z,91.41
2022-12-06T10:30:11.395Z,91.77
2022-12-06T10:35:34.093Z,91.62
2022-12-06T10:41:04.497Z,90.56
2022-12-06T10:46:57.809Z,89.82
2022-12-06T10:52:17.696Z,89.79
2022-12-06T10:57:25.337Z,89.97
2022-12-06T11:02:37.831Z,90.41
2022-12-06T11:07:43.359Z,90.71
2022-12-06T11:12:45.525Z,90.21
2022-12-06T11:17:54.912Z,89.57
2022-12-06T11:23:14.236Z,90.09
2022-12-06T11:28:37.854Z,89.51
2022-12-06T11:33:39.825Z,89.17
2022-12-06T11:38:44.341Z,88.92
2022-12-06T11:43:46.923Z,89.42
2022-12-06T11:48:48.601Z,88.46
2022-12-06T11:54:04.133Z,88.48
2022-12-06T11:59:24.910Z,88.22
2022-12-06T12:04:26.790Z,88.94
2022-12-06T12:09:32.637Z,88.19
2022-12-06T12:14:39.269Z,88.57
2022-12-06T12:19:51.612Z,88.63
2022-12-06T12:30:35.310Z,88.27
2022-12-06T12:35:45.482Z,88.35
2022-12-06T12:40:50.852Z,88.42
2022-12-06T12:46:12.189Z,88.40
2022-12-06T12:51:33.280Z,88.32
2022-12-06T12:56:37.281Z,88.49
2022-12-06T13:01:45.668Z,88.52
2022-12-06T13:06:52.675Z,88.67
2022-12-06T13:12:02.711Z,88.87
2022-12-06T13:17:08.213Z,89.29
2022-12-06T13:22:17.776Z,88.79
2022-12-06T13:27:23.629Z,88.74
2022-12-06T13:32:36.476Z,89.27
2022-12-06T13:37:45.418Z,90.16
2022-12-06T13:42:46.977Z,89.45
2022-12-06T13:47:50.586Z,89.14
2022-12-06T13:52:52.132Z,89.42
2022-12-06T13:58:16.372Z,89.84
2022-12-06T14:03:17.902Z,89.54
2022-12-06T14:08:19.908Z,90.12
2022-12-06T14:13:21.792Z,89.91
2022-12-06T14:18:28.380Z,90.42
2022-12-06T14:23:37.257Z,89.98
2022-12-06T14:28:42.576Z,89.70
2022-12-06T14:33:44.995Z,90.25
2022-12-06T14:39:00.557Z,90.06
2022-12-06T14:44:11.220Z,89.71
2022-12-06T14:49:38.359Z,90.41
2022-12-06T14:54:44.226Z,90.04
2022-12-06T15:00:14.913Z,89.38
2022-12-06T15:05:31.916Z,89.75
2022-12-06T15:10:34.595Z,89.54
2022-12-06T15:15:38.110Z,89.40
2022-12-06T15:20:40.146Z,89.94
2022-12-06T15:25:41.646Z,89.16
2022-12-06T15:30:43.290Z,89.23
2022-12-06T15:35:44.886Z,89.06
2022-12-06T15:40:49.909Z,89.53
2022-12-06T15:45:53.778Z,88.64
2022-12-06T15:50:56.555Z,89.04
2022-12-06T15:55:58.154Z,89.55
2022-12-06T16:01:00.920Z,89.26
2022-12-06T16:06:02.536Z,90.07
2022-12-06T16:11:11.840Z,89.60
2022-12-06T16:16:16.164Z,90.02
2022-12-06T16:21:24.465Z,90.31
2022-12-06T16:26:25.956Z,90.05
2022-12-06T16:31:28.289Z,90.28
2022-12-06T16:36:31.926Z,89.97
2022-12-06T16:41:35.919Z,89.92
2022-12-06T16:46:38.836Z,89.29
2022-12-06T16:51:40.374Z,89.60
2022-12-06T16:56:42.126Z,90.13
2022-12-06T17:01:51.776Z,89.18
2022-12-06T17:06:53.324Z,89.73
2022-12-06T17:12:06.138Z,90.16
2022-12-06T17:17:18.435Z,90.10
2022-12-06T17:22:23.155Z,90.28
2022-12-06T17:27:28.506Z,90.02
2022-12-06T17:32:31.763Z,90.07
2022-12-06T17:37:38.541Z,90.29
2022-12-06T17:43:03.585Z,90.94
2022-12-06T17:48:07.904Z,90.65
2022-12-06T17:53:13.041Z,90.59
2022-12-06T17:58:17.363Z,90.84
2022-12-06T18:03:22.827Z,91.31
2022-12-06T18:13:57.293Z,91.73
2022-12-06T18:19:37.786Z,92.00
2022-12-06T18:24:51.392Z,92.07
2022-12-06T18:30:08.821Z,92.50
2022-12-06T18:40:54.402Z,92.22
2022-12-06T18:46:35.253Z,91.81
2022-12-06T18:52:17.088Z,92.29
2022-12-06T18:57:36.436Z,92.26
2022-12-06T19:17:11.229Z,92.51
2022-12-06T19:22:43.073Z,92.36
2022-12-06T19:27:44.506Z,92.16
2022-12-06T19:32:45.922Z,92.64
2022-12-06T19:37:47.343Z,92.46
2022-12-06T19:43:07.385Z,92.52
2022-12-06T19:48:08.812Z,91.63
2022-12-06T19:53:10.219Z,91.91
2022-12-06T19:58:12.142Z,91.03
2022-12-06T20:03:13.559Z,90.90
2022-12-06T20:08:15.189Z,91.63
2022-12-06T20:13:16.627Z,91.71
2022-12-06T20:18:18.744Z,91.05
2022-12-06T20:23:20.244Z,91.90
2022-12-06T20:28:21.655Z,91.77
2022-12-06T20:33:23.135Z,91.77
2022-12-06T20:38:24.539Z,92.09
2022-12-06T20:43:25.939Z,92.35
2022-12-06T20:48:27.351Z,92.69
2022-12-06T20:53:29.052Z,92.60
2022-12-06T20:58:30.945Z,92.28
2022-12-06T21:03:32.566Z,92.34
2022-12-06T21:08:34.372Z,91.90
2022-12-06T21:13:36.476Z,93.13
2022-12-06T21:18:37.885Z,92.41
2022-12-06T21:23:40.477Z,92.81
2022-12-06T21:28:42.004Z,92.89
2022-12-06T21:33:43.546Z,92.92
2022-12-06T21:38:45.002Z,92.29
2022-12-06T21:43:47.037Z,92.93
2022-12-06T21:48:52.747Z,92.94
2022-12-06T21:53:54.847Z,92.64
2022-12-06T21:58:56.751Z,93.22
2022-12-06T22:04:01.348Z,92.61
2022-12-06T22:09:05.878Z,92.58
2022-12-06T22:14:08.477Z,93.02
2022-12-06T22:19:09.895Z,93.16
2022-12-06T22:24:11.329Z,93.27
2022-12-06T22:29:13.420Z,92.88
2022-12-06T22:34:14.868Z,92.85
2022-12-06T22:39:16.555Z,93.28
2022-12-06T22:44:19.497Z,92.60
2022-12-06T22:49:21.024Z,92.98
2022-12-06T22:54:22.450Z,92.57
2022-12-06T22:59:23.901Z,93.55
2022-12-06T23:04:25.384Z,93.23
2022-12-06T23:09:26.952Z,93.76
2022-12-06T23:14:28.483Z,93.32
2022-12-06T23:19:29.944Z,93.65
2022-12-06T23:24:31.356Z,93.52
2022-12-06T23:29:32.776Z,93.31
2022-12-06T23:34:34.259Z,93.16
2022-12-06T23:39:35.714Z,93.42
2022-12-06T23:44:38.685Z,93.52
2022-12-06T23:49:40.113Z,94.08
2022-12-06T23:54:41.519Z,93.46
2022-12-06T23:59:42.938Z,93.23
